Nautilus — ISPC — position and weather

sailwx.info

Track history (hours):
 
Tides and Currents Weather Stations Pressure Air Temp Water Temp Dewpoint Dewpoint Depression Visibility Wind Speed Wind Dir Waves Ship Positions

Nautilus

Last reported at 2016-Jul-29 13:26 UTC. Time now 2016-Jul-29 14:03 UTC.
Position N 42°46' E 010°06'.

Length 25 m.

Type: Ship. MMSI: 247205700.

Date/timePositionNaut miles runAvg speedWind from/ knotsBaromVisibWave heightAir tempDewpointWater temp
2016-Jul-29 13:26N 42°46' E 010°06'5 5.4
2016-Jul-29 12:33N 42°48' E 010°12'1 1.1
2016-Jul-29 11:34N 42°49' E 010°13'1 0.2
2016-Jul-29 06:32N 42°49' E 010°12'0 0.0
2016-Jul-29 05:28N 42°49' E 010°12'0 0.0
2016-Jul-29 04:21N 42°49' E 010°12'0 0.0
2016-Jul-29 03:34N 42°49' E 010°12'0 0.0
2016-Jul-29 02:34N 42°49' E 010°12'0 0.0
2016-Jul-29 01:33N 42°49' E 010°12'0 0.0
2016-Jul-29 00:33N 42°49' E 010°12'0 0.0
2016-Jul-28 23:33N 42°49' E 010°12'0 0.0
2016-Jul-28 22:33N 42°49' E 010°12'0 0.0
2016-Jul-28 21:34N 42°49' E 010°12'0 0.0
2016-Jul-28 20:33N 42°49' E 010°12'0 0.0
2016-Jul-28 19:33N 42°49' E 010°12'0 0.0
2016-Jul-28 18:34N 42°49' E 010°12'0 0.1
2016-Jul-28 17:27N 42°48' E 010°12'3 1.5
2016-Jul-28 15:31N 42°49' E 010°08'1 1.2
2016-Jul-28 14:34N 42°49' E 010°09'3 3.0
2016-Jul-28 13:25N 42°46' E 010°06'5 4.7
2016-Jul-28 12:25N 42°48' E 010°12'1 0.9
2016-Jul-28 11:31N 42°49' E 010°13'1 0.1
2016-Jul-28 05:34N 42°49' E 010°12'0 0.0
2016-Jul-28 04:34N 42°49' E 010°12'0 0.0
2016-Jul-28 03:33N 42°49' E 010°12'0 0.0
2016-Jul-28 02:34N 42°49' E 010°12'0 0.0
2016-Jul-28 01:27N 42°49' E 010°12'0 0.0
2016-Jul-28 00:29N 42°49' E 010°12'0 0.0
2016-Jul-27 23:30N 42°49' E 010°12'0 0.0
2016-Jul-27 22:33N 42°49' E 010°12'0 0.0
2016-Jul-27 21:32N 42°49' E 010°12'0 0.0
2016-Jul-27 20:34N 42°49' E 010°12'0 0.0
2016-Jul-27 19:21N 42°49' E 010°12'0 0.0
2016-Jul-27 18:33N 42°49' E 010°12'1 0.9
2016-Jul-27 17:10N 42°49' E 010°10'0 0.1
2016-Jul-27 15:20N 42°49' E 010°10'1 0.8
2016-Jul-27 14:33N 42°49' E 010°09'4 3.3
2016-Jul-27 13:28N 42°46' E 010°06'5 5.4
2016-Jul-27 12:33N 42°48' E 010°12'0 0.2
2016-Jul-27 11:31N 42°49' E 010°12'6 5.1
2016-Jul-27 10:21N 42°49' E 010°20'2 3.0
2016-Jul-27 09:33N 42°50' E 010°17'2 2.0
2016-Jul-27 08:33N 42°49' E 010°19'2 2.4
2016-Jul-27 07:33N 42°50' E 010°17'4 3.7
2016-Jul-27 06:34N 42°49' E 010°12'0 0.0
2016-Jul-27 05:33N 42°49' E 010°12'0 0.0
2016-Jul-27 04:33N 42°49' E 010°12'0 0.0
2016-Jul-27 03:19N 42°49' E 010°12'0 0.0
2016-Jul-27 02:30N 42°49' E 010°12'0 0.0
2016-Jul-27 01:33N 42°49' E 010°12'0 0.0
2016-Jul-27 00:34N 42°49' E 010°12'0 0.0
2016-Jul-26 23:34N 42°49' E 010°12'0 0.0
2016-Jul-26 22:33N 42°49' E 010°12'0 0.0
2016-Jul-26 21:33N 42°49' E 010°12'0 0.0
2016-Jul-26 20:33N 42°49' E 010°12'0 0.0
2016-Jul-26 19:33N 42°49' E 010°12'0 0.0
2016-Jul-26 18:32N 42°49' E 010°12'0 0.1
2016-Jul-26 17:33N 42°48' E 010°12'5 5.1
2016-Jul-26 16:33N 42°46' E 010°06'3 3.3
2016-Jul-26 15:33N 42°49' E 010°08'1 1.0
2016-Jul-26 14:33N 42°49' E 010°09'2 0.8
2016-Jul-26 12:15N 42°48' E 010°12'6 3.1
2016-Jul-26 10:19N 42°49' E 010°20'2 2.9
2016-Jul-26 09:33N 42°50' E 010°17'4 1.6
2016-Jul-26 07:11N 42°49' E 010°12'0 0.8
2016-Jul-26 06:34N 42°49' E 010°12'0 0.0
2016-Jul-26 05:33N 42°49' E 010°12'0 0.0
2016-Jul-26 04:33N 42°49' E 010°12'0 0.0
2016-Jul-26 03:32N 42°49' E 010°12'0 0.0
2016-Jul-26 02:33N 42°49' E 010°12'0 0.0
2016-Jul-26 01:13N 42°49' E 010°12'0 0.0
2016-Jul-26 00:25N 42°49' E 010°12'0 0.0
2016-Jul-25 23:33N 42°49' E 010°12'0 0.0
2016-Jul-25 22:13N 42°49' E 010°12'0 0.0
2016-Jul-25 21:33N 42°49' E 010°12'0 0.0
2016-Jul-25 20:32N 42°49' E 010°12'0 0.0
2016-Jul-25 19:33N 42°49' E 010°12'0 0.0
2016-Jul-25 18:09N 42°49' E 010°12'2 2.4
2016-Jul-25 17:31N 42°49' E 010°14'4 2.1
2016-Jul-25 15:32N 42°49' E 010°19'1 0.8
2016-Jul-25 14:33N 42°49' E 010°20'0 0.0
2016-Jul-25 13:31N 42°49' E 010°20'0 0.0
2016-Jul-25 12:31N 42°49' E 010°20'0 0.0
2016-Jul-25 10:25N 42°49' E 010°20'0 0.5
2016-Jul-25 09:33N 42°49' E 010°20'0 0.4
2016-Jul-25 08:29N 42°49' E 010°20'0 0.4
2016-Jul-25 07:33N 42°49' E 010°20'0 0.3
2016-Jul-25 06:25N 42°49' E 010°20'6 3.3
2016-Jul-25 04:32N 42°49' E 010°12'0 0.0
2016-Jul-25 03:33N 42°49' E 010°12'0 0.0
2016-Jul-25 02:30N 42°49' E 010°12'0 0.0
2016-Jul-25 01:33N 42°49' E 010°12'0 0.0
2016-Jul-25 00:33N 42°49' E 010°12'0 0.0
2016-Jul-24 23:32N 42°49' E 010°12'0 0.0
2016-Jul-24 22:33N 42°49' E 010°12'0 0.0
2016-Jul-24 21:33N 42°49' E 010°12'0 0.0
2016-Jul-24 20:34N 42°49' E 010°12'0 0.0
2016-Jul-24 19:33N 42°49' E 010°12'0 0.0
2016-Jul-24 18:33N 42°49' E 010°12'0 0.0
2016-Jul-24 17:33N 42°49' E 010°12'0 0.0
2016-Jul-24 16:32N 42°49' E 010°12'0 0.0
2016-Jul-24 13:33N 42°48' E 010°12'0 0.0
2016-Jul-24 12:33N 42°48' E 010°12'0 0.0
2016-Jul-24 11:33N 42°48' E 010°12'3 0.8
2016-Jul-24 07:29N 42°50' E 010°16'3 3.6
2016-Jul-24 06:34N 42°49' E 010°12'0 0.0
2016-Jul-24 05:34N 42°49' E 010°12'0 0.0
2016-Jul-24 04:33N 42°49' E 010°12'0 0.0
2016-Jul-24 03:34N 42°49' E 010°12'0 0.0
2016-Jul-24 02:33N 42°49' E 010°12'0 0.0
2016-Jul-24 01:33N 42°49' E 010°12'0 0.0
2016-Jul-24 00:29N 42°49' E 010°12'0 0.0
2016-Jul-23 23:33N 42°49' E 010°12'0 0.0
2016-Jul-23 22:33N 42°49' E 010°12'0 0.0
2016-Jul-23 21:33N 42°49' E 010°12'0 0.0
2016-Jul-23 20:33N 42°49' E 010°12'0 0.0
2016-Jul-23 19:34N 42°49' E 010°12'0 0.0
2016-Jul-23 18:34N 42°49' E 010°12'0 0.0
2016-Jul-23 17:33N 42°49' E 010°12'0 0.0
2016-Jul-23 16:33N 42°49' E 010°12'0 0.1
2016-Jul-23 13:33N 42°48' E 010°12'0 0.0
2016-Jul-23 12:33N 42°48' E 010°12'0 0.0
2016-Jul-23 11:33N 42°48' E 010°12'0 0.3
2016-Jul-23 10:33N 42°49' E 010°12'0 0.2
2016-Jul-23 09:33N 42°49' E 010°12'0 0.0
2016-Jul-23 08:34N 42°49' E 010°12'0 0.0
2016-Jul-23 07:33N 42°49' E 010°12'0 0.0
2016-Jul-23 06:33N 42°49' E 010°12'0 0.0
2016-Jul-23 04:34N 42°49' E 010°12'0 0.0
2016-Jul-23 03:34N 42°49' E 010°12'0 0.0
2016-Jul-23 02:33N 42°49' E 010°12'0 0.0
2016-Jul-23 01:34N 42°49' E 010°12'0 0.0
2016-Jul-23 00:12N 42°49' E 010°12'0 0.0
2016-Jul-22 23:31N 42°49' E 010°12'0 0.0
2016-Jul-22 22:33N 42°49' E 010°12'0 0.0
2016-Jul-22 21:34N 42°49' E 010°12'0 0.0
2016-Jul-22 20:23N 42°49' E 010°12'0 0.0
2016-Jul-22 19:33N 42°49' E 010°12'0 0.0
2016-Jul-22 18:33N 42°49' E 010°12'0 0.0
2016-Jul-22 17:33N 42°49' E 010°12'5 4.9
2016-Jul-22 16:33N 42°46' E 010°06'3 2.9
2016-Jul-22 15:29N 42°49' E 010°08'1 1.0
2016-Jul-22 14:34N 42°49' E 010°10'4 3.4
2016-Jul-22 13:27N 42°46' E 010°06'5 5.4
2016-Jul-22 12:33N 42°48' E 010°12'2 1.5
2016-Jul-22 11:29N 42°49' E 010°14'5 4.4
2016-Jul-22 10:23N 42°49' E 010°20'2 3.0
2016-Jul-22 09:33N 42°50' E 010°17'0 0.2
2016-Jul-22 07:33N 42°50' E 010°17'4 2.1
2016-Jul-22 05:33N 42°49' E 010°12'0 0.0
2016-Jul-22 04:33N 42°49' E 010°12'0 0.0
2016-Jul-22 03:33N 42°49' E 010°12'0 0.0
2016-Jul-22 01:32N 42°49' E 010°12'0 0.0
2016-Jul-22 00:29N 42°49' E 010°12'0 0.0
2016-Jul-21 23:30N 42°49' E 010°12'0 0.0
2016-Jul-21 22:24N 42°49' E 010°12'0 0.0
2016-Jul-21 20:32N 42°49' E 010°12'0 0.0
2016-Jul-21 19:11N 42°49' E 010°12'0 0.0
2016-Jul-21 18:10N 42°49' E 010°12'1 0.8
2016-Jul-21 17:12N 42°49' E 010°11'2 1.2
2016-Jul-21 15:31N 42°49' E 010°08'1 0.8
2016-Jul-21 14:32N 42°49' E 010°09'3 3.2
2016-Jul-21 13:27N 42°46' E 010°06'5 5.3
2016-Jul-21 12:33N 42°48' E 010°12'0 0.1
2016-Jul-21 11:34N 42°48' E 010°12'3 1.3
2016-Jul-21 09:20N 42°49' E 010°15'0 0.2
2016-Jul-21 07:34N 42°50' E 010°16'3 2.7
2016-Jul-21 06:23N 42°49' E 010°12'0 0.0
2016-Jul-21 05:33N 42°49' E 010°12'0 0.0
2016-Jul-21 03:30N 42°49' E 010°12'0 0.0
2016-Jul-21 02:23N 42°49' E 010°12'0 0.0
2016-Jul-20 23:15N 42°49' E 010°12'0 0.0
2016-Jul-20 21:16N 42°49' E 010°12'0 0.0
2016-Jul-20 20:34N 42°49' E 010°12'0 0.0
2016-Jul-20 19:33N 42°49' E 010°12'3 0.8
2016-Jul-20 15:34N 42°48' E 010°08'1 1.0
2016-Jul-20 14:31N 42°49' E 010°09'4 3.9
2016-Jul-20 13:33N 42°45' E 010°06'5 5.0
2016-Jul-20 12:32N 42°48' E 010°12'0 0.0
2016-Jul-20 11:33N 42°48' E 010°12'6 4.9
2016-Jul-20 10:22N 42°49' E 010°20'2 2.5
2016-Jul-20 09:33N 42°50' E 010°17'1 0.4
2016-Jul-20 07:33N 42°50' E 010°16'4 3.6
2016-Jul-20 06:33N 42°49' E 010°12'0 0.0
2016-Jul-20 05:33N 42°49' E 010°12'0 0.0
2016-Jul-20 04:33N 42°49' E 010°12'0 0.0
2016-Jul-20 03:33N 42°49' E 010°12'0 0.0
2016-Jul-20 02:33N 42°49' E 010°12'0 0.0
2016-Jul-20 01:34N 42°49' E 010°12'0 0.0
2016-Jul-20 00:33N 42°49' E 010°12'0 0.0
2016-Jul-19 23:10N 42°49' E 010°12'0 0.0
2016-Jul-19 22:32N 42°49' E 010°12'0 0.0
2016-Jul-19 21:32N 42°49' E 010°12'0 0.0
2016-Jul-19 20:30N 42°49' E 010°12'0 0.0
2016-Jul-19 19:33N 42°49' E 010°12'0 0.0
2016-Jul-19 18:33N 42°49' E 010°12'0 0.2
2016-Jul-19 17:33N 42°48' E 010°12'0 0.1
2016-Jul-19 15:12N 42°49' E 010°12'2 3.0
2016-Jul-19 14:32N 42°49' E 010°09'  
Track history (hours):
 
Tides and Currents Weather Stations Pressure Air Temp Water Temp Dewpoint Dewpoint Depression Visibility Wind Speed Wind Dir Waves Ship Positions

Nautilus

Last reported at 2016-Jul-29 13:26 UTC. Time now 2016-Jul-29 14:03 UTC.
Position N 42°46' E 010°06'.

Length 25 m.

Type: Ship. MMSI: 247205700.

Date/timePositionNaut miles runAvg speedWind from/ knotsBaromVisibWave heightAir tempDewpointWater temp
2016-Jul-29 13:26N 42°46' E 010°06'5 5.4
2016-Jul-29 12:33N 42°48' E 010°12'1 1.1
2016-Jul-29 11:34N 42°49' E 010°13'1 0.2
2016-Jul-29 06:32N 42°49' E 010°12'0 0.0
2016-Jul-29 05:28N 42°49' E 010°12'0 0.0
2016-Jul-29 04:21N 42°49' E 010°12'0 0.0
2016-Jul-29 03:34N 42°49' E 010°12'0 0.0
2016-Jul-29 02:34N 42°49' E 010°12'0 0.0
2016-Jul-29 01:33N 42°49' E 010°12'0 0.0
2016-Jul-29 00:33N 42°49' E 010°12'0 0.0
2016-Jul-28 23:33N 42°49' E 010°12'0 0.0
2016-Jul-28 22:33N 42°49' E 010°12'0 0.0
2016-Jul-28 21:34N 42°49' E 010°12'0 0.0
2016-Jul-28 20:33N 42°49' E 010°12'0 0.0
2016-Jul-28 19:33N 42°49' E 010°12'0 0.0
2016-Jul-28 18:34N 42°49' E 010°12'0 0.1
2016-Jul-28 17:27N 42°48' E 010°12'3 1.5
2016-Jul-28 15:31N 42°49' E 010°08'1 1.2
2016-Jul-28 14:34N 42°49' E 010°09'3 3.0
2016-Jul-28 13:25N 42°46' E 010°06'5 4.7
2016-Jul-28 12:25N 42°48' E 010°12'1 0.9
2016-Jul-28 11:31N 42°49' E 010°13'1 0.1
2016-Jul-28 05:34N 42°49' E 010°12'0 0.0
2016-Jul-28 04:34N 42°49' E 010°12'0 0.0
2016-Jul-28 03:33N 42°49' E 010°12'0 0.0
2016-Jul-28 02:34N 42°49' E 010°12'0 0.0
2016-Jul-28 01:27N 42°49' E 010°12'0 0.0
2016-Jul-28 00:29N 42°49' E 010°12'0 0.0
2016-Jul-27 23:30N 42°49' E 010°12'0 0.0
2016-Jul-27 22:33N 42°49' E 010°12'0 0.0
2016-Jul-27 21:32N 42°49' E 010°12'0 0.0
2016-Jul-27 20:34N 42°49' E 010°12'0 0.0
2016-Jul-27 19:21N 42°49' E 010°12'0 0.0
2016-Jul-27 18:33N 42°49' E 010°12'1 0.9
2016-Jul-27 17:10N 42°49' E 010°10'0 0.1
2016-Jul-27 15:20N 42°49' E 010°10'1 0.8
2016-Jul-27 14:33N 42°49' E 010°09'4 3.3
2016-Jul-27 13:28N 42°46' E 010°06'5 5.4
2016-Jul-27 12:33N 42°48' E 010°12'0 0.2
2016-Jul-27 11:31N 42°49' E 010°12'6 5.1
2016-Jul-27 10:21N 42°49' E 010°20'2 3.0
2016-Jul-27 09:33N 42°50' E 010°17'2 2.0
2016-Jul-27 08:33N 42°49' E 010°19'2 2.4
2016-Jul-27 07:33N 42°50' E 010°17'4 3.7
2016-Jul-27 06:34N 42°49' E 010°12'0 0.0
2016-Jul-27 05:33N 42°49' E 010°12'0 0.0
2016-Jul-27 04:33N 42°49' E 010°12'0 0.0
2016-Jul-27 03:19N 42°49' E 010°12'0 0.0
2016-Jul-27 02:30N 42°49' E 010°12'0 0.0
2016-Jul-27 01:33N 42°49' E 010°12'0 0.0
2016-Jul-27 00:34N 42°49' E 010°12'0 0.0
2016-Jul-26 23:34N 42°49' E 010°12'0 0.0
2016-Jul-26 22:33N 42°49' E 010°12'0 0.0
2016-Jul-26 21:33N 42°49' E 010°12'0 0.0
2016-Jul-26 20:33N 42°49' E 010°12'0 0.0
2016-Jul-26 19:33N 42°49' E 010°12'0 0.0
2016-Jul-26 18:32N 42°49' E 010°12'0 0.1
2016-Jul-26 17:33N 42°48' E 010°12'5 5.1
2016-Jul-26 16:33N 42°46' E 010°06'3 3.3
2016-Jul-26 15:33N 42°49' E 010°08'1 1.0
2016-Jul-26 14:33N 42°49' E 010°09'2 0.8
2016-Jul-26 12:15N 42°48' E 010°12'6 3.1
2016-Jul-26 10:19N 42°49' E 010°20'2 2.9
2016-Jul-26 09:33N 42°50' E 010°17'4 1.6
2016-Jul-26 07:11N 42°49' E 010°12'0 0.8
2016-Jul-26 06:34N 42°49' E 010°12'0 0.0
2016-Jul-26 05:33N 42°49' E 010°12'0 0.0
2016-Jul-26 04:33N 42°49' E 010°12'0 0.0
2016-Jul-26 03:32N 42°49' E 010°12'0 0.0
2016-Jul-26 02:33N 42°49' E 010°12'0 0.0
2016-Jul-26 01:13N 42°49' E 010°12'0 0.0
2016-Jul-26 00:25N 42°49' E 010°12'0 0.0
2016-Jul-25 23:33N 42°49' E 010°12'0 0.0
2016-Jul-25 22:13N 42°49' E 010°12'0 0.0
2016-Jul-25 21:33N 42°49' E 010°12'0 0.0
2016-Jul-25 20:32N 42°49' E 010°12'0 0.0
2016-Jul-25 19:33N 42°49' E 010°12'0 0.0
2016-Jul-25 18:09N 42°49' E 010°12'2 2.4
2016-Jul-25 17:31N 42°49' E 010°14'4 2.1
2016-Jul-25 15:32N 42°49' E 010°19'1 0.8
2016-Jul-25 14:33N 42°49' E 010°20'0 0.0
2016-Jul-25 13:31N 42°49' E 010°20'0 0.0
2016-Jul-25 12:31N 42°49' E 010°20'0 0.0
2016-Jul-25 10:25N 42°49' E 010°20'0 0.5
2016-Jul-25 09:33N 42°49' E 010°20'0 0.4
2016-Jul-25 08:29N 42°49' E 010°20'0 0.4
2016-Jul-25 07:33N 42°49' E 010°20'0 0.3
2016-Jul-25 06:25N 42°49' E 010°20'6 3.3
2016-Jul-25 04:32N 42°49' E 010°12'0 0.0
2016-Jul-25 03:33N 42°49' E 010°12'0 0.0
2016-Jul-25 02:30N 42°49' E 010°12'0 0.0
2016-Jul-25 01:33N 42°49' E 010°12'0 0.0
2016-Jul-25 00:33N 42°49' E 010°12'0 0.0
2016-Jul-24 23:32N 42°49' E 010°12'0 0.0
2016-Jul-24 22:33N 42°49' E 010°12'0 0.0
2016-Jul-24 21:33N 42°49' E 010°12'0 0.0
2016-Jul-24 20:34N 42°49' E 010°12'0 0.0
2016-Jul-24 19:33N 42°49' E 010°12'0 0.0
2016-Jul-24 18:33N 42°49' E 010°12'0 0.0
2016-Jul-24 17:33N 42°49' E 010°12'0 0.0
2016-Jul-24 16:32N 42°49' E 010°12'0 0.0
2016-Jul-24 13:33N 42°48' E 010°12'0 0.0
2016-Jul-24 12:33N 42°48' E 010°12'0 0.0
2016-Jul-24 11:33N 42°48' E 010°12'3 0.8
2016-Jul-24 07:29N 42°50' E 010°16'3 3.6
2016-Jul-24 06:34N 42°49' E 010°12'0 0.0
2016-Jul-24 05:34N 42°49' E 010°12'0 0.0
2016-Jul-24 04:33N 42°49' E 010°12'0 0.0
2016-Jul-24 03:34N 42°49' E 010°12'0 0.0
2016-Jul-24 02:33N 42°49' E 010°12'0 0.0
2016-Jul-24 01:33N 42°49' E 010°12'0 0.0
2016-Jul-24 00:29N 42°49' E 010°12'0 0.0
2016-Jul-23 23:33N 42°49' E 010°12'0 0.0
2016-Jul-23 22:33N 42°49' E 010°12'0 0.0
2016-Jul-23 21:33N 42°49' E 010°12'0 0.0
2016-Jul-23 20:33N 42°49' E 010°12'0 0.0
2016-Jul-23 19:34N 42°49' E 010°12'0 0.0
2016-Jul-23 18:34N 42°49' E 010°12'0 0.0
2016-Jul-23 17:33N 42°49' E 010°12'0 0.0
2016-Jul-23 16:33N 42°49' E 010°12'0 0.1
2016-Jul-23 13:33N 42°48' E 010°12'0 0.0
2016-Jul-23 12:33N 42°48' E 010°12'0 0.0
2016-Jul-23 11:33N 42°48' E 010°12'0 0.3
2016-Jul-23 10:33N 42°49' E 010°12'0 0.2
2016-Jul-23 09:33N 42°49' E 010°12'0 0.0
2016-Jul-23 08:34N 42°49' E 010°12'0 0.0
2016-Jul-23 07:33N 42°49' E 010°12'0 0.0
2016-Jul-23 06:33N 42°49' E 010°12'0 0.0
2016-Jul-23 04:34N 42°49' E 010°12'0 0.0
2016-Jul-23 03:34N 42°49' E 010°12'0 0.0
2016-Jul-23 02:33N 42°49' E 010°12'0 0.0
2016-Jul-23 01:34N 42°49' E 010°12'0 0.0
2016-Jul-23 00:12N 42°49' E 010°12'0 0.0
2016-Jul-22 23:31N 42°49' E 010°12'0 0.0
2016-Jul-22 22:33N 42°49' E 010°12'0 0.0
2016-Jul-22 21:34N 42°49' E 010°12'0 0.0
2016-Jul-22 20:23N 42°49' E 010°12'0 0.0
2016-Jul-22 19:33N 42°49' E 010°12'0 0.0
2016-Jul-22 18:33N 42°49' E 010°12'0 0.0
2016-Jul-22 17:33N 42°49' E 010°12'5 4.9
2016-Jul-22 16:33N 42°46' E 010°06'3 2.9
2016-Jul-22 15:29N 42°49' E 010°08'1 1.0
2016-Jul-22 14:34N 42°49' E 010°10'4 3.4
2016-Jul-22 13:27N 42°46' E 010°06'5 5.4
2016-Jul-22 12:33N 42°48' E 010°12'2 1.5
2016-Jul-22 11:29N 42°49' E 010°14'5 4.4
2016-Jul-22 10:23N 42°49' E 010°20'2 3.0
2016-Jul-22 09:33N 42°50' E 010°17'0 0.2
2016-Jul-22 07:33N 42°50' E 010°17'4 2.1
2016-Jul-22 05:33N 42°49' E 010°12'0 0.0
2016-Jul-22 04:33N 42°49' E 010°12'0 0.0
2016-Jul-22 03:33N 42°49' E 010°12'0 0.0
2016-Jul-22 01:32N 42°49' E 010°12'0 0.0
2016-Jul-22 00:29N 42°49' E 010°12'0 0.0
2016-Jul-21 23:30N 42°49' E 010°12'0 0.0
2016-Jul-21 22:24N 42°49' E 010°12'0 0.0
2016-Jul-21 20:32N 42°49' E 010°12'0 0.0
2016-Jul-21 19:11N 42°49' E 010°12'0 0.0
2016-Jul-21 18:10N 42°49' E 010°12'1 0.8
2016-Jul-21 17:12N 42°49' E 010°11'2 1.2
2016-Jul-21 15:31N 42°49' E 010°08'1 0.8
2016-Jul-21 14:32N 42°49' E 010°09'3 3.2
2016-Jul-21 13:27N 42°46' E 010°06'5 5.3
2016-Jul-21 12:33N 42°48' E 010°12'0 0.1
2016-Jul-21 11:34N 42°48' E 010°12'3 1.3
2016-Jul-21 09:20N 42°49' E 010°15'0 0.2
2016-Jul-21 07:34N 42°50' E 010°16'3 2.7
2016-Jul-21 06:23N 42°49' E 010°12'0 0.0
2016-Jul-21 05:33N 42°49' E 010°12'0 0.0
2016-Jul-21 03:30N 42°49' E 010°12'0 0.0
2016-Jul-21 02:23N 42°49' E 010°12'0 0.0
2016-Jul-20 23:15N 42°49' E 010°12'0 0.0
2016-Jul-20 21:16N 42°49' E 010°12'0 0.0
2016-Jul-20 20:34N 42°49' E 010°12'0 0.0
2016-Jul-20 19:33N 42°49' E 010°12'3 0.8
2016-Jul-20 15:34N 42°48' E 010°08'1 1.0
2016-Jul-20 14:31N 42°49' E 010°09'4 3.9
2016-Jul-20 13:33N 42°45' E 010°06'5 5.0
2016-Jul-20 12:32N 42°48' E 010°12'0 0.0
2016-Jul-20 11:33N 42°48' E 010°12'6 4.9
2016-Jul-20 10:22N 42°49' E 010°20'2 2.5
2016-Jul-20 09:33N 42°50' E 010°17'1 0.4
2016-Jul-20 07:33N 42°50' E 010°16'4 3.6
2016-Jul-20 06:33N 42°49' E 010°12'0 0.0
2016-Jul-20 05:33N 42°49' E 010°12'0 0.0
2016-Jul-20 04:33N 42°49' E 010°12'0 0.0
2016-Jul-20 03:33N 42°49' E 010°12'0 0.0
2016-Jul-20 02:33N 42°49' E 010°12'0 0.0
2016-Jul-20 01:34N 42°49' E 010°12'0 0.0
2016-Jul-20 00:33N 42°49' E 010°12'0 0.0
2016-Jul-19 23:10N 42°49' E 010°12'0 0.0
2016-Jul-19 22:32N 42°49' E 010°12'0 0.0
2016-Jul-19 21:32N 42°49' E 010°12'0 0.0
2016-Jul-19 20:30N 42°49' E 010°12'0 0.0
2016-Jul-19 19:33N 42°49' E 010°12'0 0.0
2016-Jul-19 18:33N 42°49' E 010°12'0 0.2
2016-Jul-19 17:33N 42°48' E 010°12'0 0.1
2016-Jul-19 15:12N 42°49' E 010°12'2 3.0
2016-Jul-19 14:32N 42°49' E 010°09'  

Dump ship's entire track history